Time;durP1;ratioP1;P1;durP2;ratioP2;P2;SDS_P1;SDS_P2;PMS_P1;PMS_P2;Temp;Humidity;BMP_temperature;BMP_pressure;BME280_temperature;BME280_humidity;BME280_pressure;Samples;Min_cycle;Max_cycle;Signal;HPM_P1;HPM_P2
2022/06/25 00:00:36;;;;;;;1999.90;999.90;;;19.90;99.90;;;;;;5033755;28;20452;-70
2022/06/25 00:03:03;;;;;;;1999.90;999.90;;;19.90;99.90;;;;;;5033502;28;20516;-70
2022/06/25 00:05:32;;;;;;;1999.90;999.90;;;20.00;99.90;;;;;;5033370;28;20481;-70
2022/06/25 00:08:00;;;;;;;1999.90;999.90;;;20.10;99.90;;;;;;5033307;28;20490;-70
2022/06/25 00:10:27;;;;;;;1999.90;999.90;;;20.10;99.90;;;;;;5033424;28;20447;-70
2022/06/25 00:12:54;;;;;;;1999.90;999.90;;;20.00;99.90;;;;;;5033196;28;20447;-71
2022/06/25 00:15:20;;;;;;;1999.90;999.90;;;20.20;99.90;;;;;;5033514;28;20507;-70
2022/06/25 00:17:47;;;;;;;1999.90;999.90;;;20.20;99.90;;;;;;5032781;28;20471;-70
2022/06/25 00:20:14;;;;;;;1999.90;999.90;;;20.30;99.90;;;;;;5032925;28;20447;-70
2022/06/25 00:22:40;;;;;;;1999.90;999.90;;;20.30;99.90;;;;;;5032922;28;20447;-68
2022/06/25 00:25:08;;;;;;;1999.90;999.90;;;20.20;99.90;;;;;;5033019;28;20451;-71
2022/06/25 00:27:34;;;;;;;1999.90;999.90;;;20.20;99.90;;;;;;5032657;28;21052;-71
2022/06/25 00:30:04;;;;;;;1999.90;999.90;;;20.20;99.90;;;;;;5032440;28;21021;-71
2022/06/25 00:32:30;;;;;;;1999.90;999.90;;;20.20;99.90;;;;;;5032184;28;20876;-71
2022/06/25 00:34:57;;;;;;;1999.90;999.90;;;20.20;99.90;;;;;;5032871;28;20447;-69
2022/06/25 00:37:23;;;;;;;1999.90;999.90;;;20.30;99.90;;;;;;5032782;28;20498;-69
2022/06/25 00:39:50;;;;;;;1999.90;999.90;;;20.30;99.90;;;;;;5032969;28;20478;-70
2022/06/25 00:42:17;;;;;;;1999.90;999.90;;;20.30;99.90;;;;;;5032403;28;20990;-70
2022/06/25 00:44:44;;;;;;;1999.90;999.90;;;20.40;99.90;;;;;;5032913;28;20497;-70
2022/06/25 00:47:13;;;;;;;1999.90;999.90;;;20.30;99.90;;;;;;5032607;28;20479;-70
2022/06/25 00:49:41;;;;;;;1999.90;999.90;;;20.30;99.90;;;;;;5032677;28;20443;-70
2022/06/25 00:52:11;;;;;;;1999.90;999.90;;;20.20;99.90;;;;;;5032388;28;20501;-70
2022/06/25 00:54:39;;;;;;;1999.90;999.90;;;20.20;99.90;;;;;;5032398;28;20466;-70
2022/06/25 00:57:08;;;;;;;1999.90;999.90;;;20.20;99.90;;;;;;5032405;28;20439;-70
2022/06/25 00:59:40;;;;;;;1999.90;999.90;;;20.20;99.90;;;;;;5032237;28;20477;-70
2022/06/25 01:02:07;;;;;;;1999.90;999.90;;;20.00;99.90;;;;;;5031991;28;20908;-70
2022/06/25 01:04:37;;;;;;;1999.90;999.90;;;20.00;99.90;;;;;;5032523;28;20439;-70
2022/06/25 01:07:04;;;;;;;1999.90;999.90;;;20.00;99.90;;;;;;5032575;28;20540;-70
2022/06/25 01:09:31;;;;;;;1999.90;999.90;;;20.00;99.90;;;;;;5032018;28;20447;-70
2022/06/25 01:11:58;;;;;;;1999.90;999.90;;;20.00;99.90;;;;;;5032419;28;20497;-70
2022/06/25 01:14:24;;;;;;;1999.90;999.90;;;19.90;99.90;;;;;;5031929;28;20506;-70
2022/06/25 01:16:51;;;;;;;1999.90;999.90;;;19.90;99.90;;;;;;5031721;28;20451;-70
2022/06/25 01:19:18;;;;;;;1999.90;999.90;;;19.90;99.90;;;;;;5103591;22;20500;-70
2022/06/25 01:21:46;;;;;;;1999.90;999.90;;;19.90;99.90;;;;;;5092193;28;20444;-70
2022/06/25 01:24:14;;;;;;;1999.90;999.90;;;19.80;99.90;;;;;;5092336;28;20433;-70
2022/06/25 01:26:42;;;;;;;1999.90;999.90;;;19.90;99.90;;;;;;5092207;28;20841;-70
2022/06/25 01:29:10;;;;;;;1999.90;999.90;;;19.80;99.90;;;;;;5091922;28;20537;-71
2022/06/25 01:31:37;;;;;;;1999.90;999.90;;;19.90;99.90;;;;;;5091952;28;20932;-70
2022/06/25 01:34:04;;;;;;;1999.90;999.90;;;20.00;99.90;;;;;;5091539;28;20444;-70
2022/06/25 01:36:31;;;;;;;1999.90;999.90;;;20.00;99.90;;;;;;5092235;28;20452;-70
2022/06/25 01:38:58;;;;;;;1999.90;999.90;;;20.10;99.90;;;;;;5091910;28;20464;-70
2022/06/25 01:41:26;;;;;;;1999.90;999.90;;;20.10;99.90;;;;;;5091991;28;20444;-71
2022/06/25 01:43:53;;;;;;;1999.90;999.90;;;20.10;99.90;;;;;;5091533;28;20501;-70
2022/06/25 01:46:19;;;;;;;1999.90;999.90;;;20.10;99.90;;;;;;5091932;28;20444;-70
2022/06/25 01:48:46;;;;;;;1999.90;999.90;;;20.20;99.90;;;;;;5091489;28;20999;-70
2022/06/25 01:51:13;;;;;;;1999.90;999.90;;;20.20;99.90;;;;;;5092080;28;20449;-71
2022/06/25 01:53:40;;;;;;;1999.90;999.90;;;20.10;99.90;;;;;;5091762;28;20892;-71
2022/06/25 01:56:08;;;;;;;1999.90;999.90;;;19.90;99.90;;;;;;5092447;28;20497;-70
2022/06/25 01:58:37;;;;;;;1999.90;999.90;;;19.70;99.90;;;;;;5092046;28;20505;-71
2022/06/25 02:01:05;;;;;;;1999.90;999.90;;;19.70;99.90;;;;;;5092017;28;20483;-70
2022/06/25 02:03:32;;;;;;;1999.90;999.90;;;19.60;99.90;;;;;;5092263;28;20453;-70
2022/06/25 02:05:59;;;;;;;1999.90;999.90;;;19.50;99.90;;;;;;5093211;28;20440;-70
2022/06/25 02:08:28;;;;;;;1999.90;999.90;;;19.40;99.90;;;;;;5092587;28;20541;-70
2022/06/25 02:10:56;;;;;;;1999.90;999.90;;;19.40;99.90;;;;;;5093311;28;20506;-70
2022/06/25 02:13:23;;;;;;;1999.90;999.90;;;19.40;99.90;;;;;;5093178;28;20452;-70
2022/06/25 02:15:52;;;;;;;1999.90;999.90;;;19.20;99.90;;;;;;5093935;28;20660;-70
2022/06/25 02:18:19;;;;;;;1999.90;999.90;;;19.20;99.90;;;;;;5092616;28;21034;-71
2022/06/25 02:20:46;;;;;;;1999.90;999.90;;;19.30;99.90;;;;;;5092365;28;20448;-70
2022/06/25 02:23:14;;;;;;;1999.90;999.90;;;19.40;99.90;;;;;;5091987;28;20440;-70
2022/06/25 02:25:42;;;;;;;1999.90;999.90;;;19.40;99.90;;;;;;5091855;28;20452;-71
2022/06/25 02:28:08;;;;;;;1999.90;999.90;;;19.40;99.90;;;;;;5091811;28;21203;-70
2022/06/25 02:30:35;;;;;;;1999.90;999.90;;;19.50;99.90;;;;;;5092180;28;20501;-70
2022/06/25 02:33:04;;;;;;;1999.90;999.90;;;19.50;99.90;;;;;;5092826;28;20489;-70
2022/06/25 02:35:31;;;;;;;1999.90;999.90;;;19.30;99.90;;;;;;5093722;28;20525;-70
2022/06/25 02:37:57;;;;;;;1999.90;999.90;;;19.10;99.90;;;;;;5093672;28;20448;-71
2022/06/25 02:40:24;;;;;;;1999.90;999.90;;;18.90;99.90;;;;;;5093761;28;20449;-70
2022/06/25 02:42:51;;;;;;;1999.90;999.90;;;18.80;99.90;;;;;;5093306;28;20873;-70
2022/06/25 02:45:17;;;;;;;1999.90;999.90;;;18.80;99.90;;;;;;5093962;28;20952;-70
2022/06/25 02:47:44;;;;;;;1999.90;999.90;;;18.70;99.90;;;;;;5093347;28;20485;-70
2022/06/25 02:50:12;;;;;;;1999.90;999.90;;;18.70;99.90;;;;;;5093280;28;20444;-70
2022/06/25 02:52:39;;;;;;;1999.90;999.90;;;18.90;99.90;;;;;;5092594;28;20454;-71
2022/06/25 02:55:06;;;;;;;1999.90;999.90;;;18.90;99.90;;;;;;5095715;28;20444;-70
2022/06/25 03:00:17;;;;;;;1999.90;999.90;;;18.70;99.90;;;;;;5097555;28;20904;-70
2022/06/25 03:02:44;;;;;;;1999.90;999.90;;;18.70;99.90;;;;;;5096207;28;20448;-70
2022/06/25 03:05:12;;;;;;;1999.90;999.90;;;18.90;99.90;;;;;;5096237;28;20448;-70
2022/06/25 03:07:38;;;;;;;1999.90;999.90;;;19.00;99.90;;;;;;5095808;28;20484;-70
2022/06/25 03:10:06;;;;;;;1999.90;999.90;;;19.10;99.90;;;;;;5095587;28;20444;-70
2022/06/25 03:12:33;;;;;;;1999.90;999.90;;;19.20;99.90;;;;;;5095390;28;20933;-70
2022/06/25 03:14:59;;;;;;;1999.90;999.90;;;19.10;99.90;;;;;;5095522;28;20444;-70
2022/06/25 03:17:26;;;;;;;1999.90;999.90;;;19.10;99.90;;;;;;5095124;28;20494;-70
2022/06/25 03:19:52;;;;;;;1999.90;999.90;;;19.00;99.90;;;;;;5095421;28;20501;-71
2022/06/25 03:22:21;;;;;;;1999.90;999.90;;;19.10;99.90;;;;;;5095825;28;20482;-70
2022/06/25 03:24:48;;;;;;;1999.90;999.90;;;19.00;99.90;;;;;;5095545;28;20452;-70
2022/06/25 03:27:15;;;;;;;1999.90;999.90;;;19.10;99.90;;;;;;5095447;28;20440;-71
2022/06/25 03:29:41;;;;;;;1999.90;999.90;;;19.00;99.90;;;;;;5096668;28;20480;-70
2022/06/25 03:32:08;;;;;;;1999.90;999.90;;;18.90;99.90;;;;;;5095822;28;20502;-72
2022/06/25 03:34:35;;;;;;;1999.90;999.90;;;18.90;99.90;;;;;;5094009;28;20448;-72
2022/06/25 03:37:02;;;;;;;1999.90;999.90;;;18.90;99.90;;;;;;5093916;28;20932;-72
2022/06/25 03:39:30;;;;;;;1999.90;999.90;;;18.90;99.90;;;;;;5094214;28;20453;-72
2022/06/25 03:41:56;;;;;;;1999.90;999.90;;;18.70;99.90;;;;;;5093805;28;20875;-72
2022/06/25 03:44:23;;;;;;;1999.90;999.90;;;18.70;99.90;;;;;;5094004;28;20498;-72
2022/06/25 03:46:50;;;;;;;1999.90;999.90;;;18.70;99.90;;;;;;5094143;28;20493;-72
2022/06/25 03:49:16;;;;;;;1999.90;999.90;;;18.80;99.90;;;;;;5093791;28;20480;-70
2022/06/25 03:51:43;;;;;;;1999.90;999.90;;;19.00;99.90;;;;;;5095231;28;20448;-72
2022/06/25 03:54:10;;;;;;;1999.90;999.90;;;19.10;99.90;;;;;;5093807;28;20444;-72
2022/06/25 03:56:38;;;;;;;1999.90;999.90;;;19.10;99.90;;;;;;5093847;28;20482;-72
2022/06/25 03:59:04;;;;;;;1999.90;999.90;;;19.20;99.90;;;;;;5093552;28;20990;-72
2022/06/25 04:01:31;;;;;;;1999.90;999.90;;;19.20;99.90;;;;;;5093596;28;20444;-72
2022/06/25 04:03:57;;;;;;;1999.90;999.90;;;19.20;99.90;;;;;;5093373;28;20448;-73
2022/06/25 04:06:24;;;;;;;1999.90;999.90;;;19.40;99.90;;;;;;5093582;28;20451;-72
2022/06/25 04:08:51;;;;;;;1999.90;999.90;;;19.10;99.90;;;;;;5093110;28;20984;-72
2022/06/25 04:11:18;;;;;;;1999.90;999.90;;;18.90;99.90;;;;;;5093800;28;20501;-72
2022/06/25 04:13:46;;;;;;;1999.90;999.90;;;18.90;99.90;;;;;;5093181;28;20440;-73
2022/06/25 04:16:12;;;;;;;1999.90;999.90;;;18.80;99.90;;;;;;5093066;28;20984;-72
2022/06/25 04:18:39;;;;;;;1999.90;999.90;;;18.80;99.90;;;;;;5093125;28;20984;-72
2022/06/25 04:21:06;;;;;;;1999.90;999.90;;;19.00;99.90;;;;;;5093190;28;20444;-72
2022/06/25 04:23:32;;;;;;;1999.90;999.90;;;19.20;99.90;;;;;;5093120;28;20449;-72
2022/06/25 04:25:59;;;;;;;1999.90;999.90;;;19.40;99.90;;;;;;5093410;28;20448;-72
2022/06/25 04:31:11;;;;;;;1999.90;999.90;;;19.30;99.90;;;;;;5093044;28;20408;-72
2022/06/25 04:33:38;;;;;;;1999.90;999.90;;;19.20;99.90;;;;;;5092972;28;20505;-72
2022/06/25 04:36:05;;;;;;;1999.90;999.90;;;19.20;99.90;;;;;;5093016;28;20444;-72
2022/06/25 04:38:32;;;;;;;1999.90;999.90;;;19.50;99.90;;;;;;5093143;28;20467;-69
2022/06/25 04:40:58;;;;;;;1999.90;999.90;;;19.80;99.90;;;;;;5092889;28;20449;-70
2022/06/25 04:43:25;;;;;;;1999.90;999.90;;;20.10;99.90;;;;;;5093117;28;20448;-70
2022/06/25 04:45:51;;;;;;;1999.90;999.90;;;20.30;99.90;;;;;;5092643;28;20497;-70
2022/06/25 04:48:19;;;;;;;1999.90;999.90;;;20.40;99.90;;;;;;5092793;28;20900;-70
2022/06/25 04:50:47;;;;;;;1999.90;999.90;;;20.60;99.90;;;;;;5092717;28;20505;-69
2022/06/25 04:53:14;;;;;;;1999.90;999.90;;;20.70;99.90;;;;;;5092154;28;20462;-70
2022/06/25 04:55:40;;;;;;;1999.90;999.90;;;20.60;99.90;;;;;;5092422;28;20445;-70
2022/06/25 04:58:07;;;;;;;1999.90;999.90;;;20.60;99.90;;;;;;5092718;28;20460;-70
2022/06/25 05:00:34;;;;;;;1999.90;999.90;;;20.60;99.90;;;;;;5092503;28;20867;-70
2022/06/25 05:03:00;;;;;;;1999.90;999.90;;;20.60;99.90;;;;;;5092330;28;20444;-70
2022/06/25 05:05:28;;;;;;;1999.90;999.90;;;20.60;99.90;;;;;;5092615;28;20448;-70
2022/06/25 05:07:55;;;;;;;1999.90;999.90;;;20.60;99.90;;;;;;5092281;28;20513;-69
2022/06/25 05:10:22;;;;;;;1999.90;999.90;;;20.60;99.90;;;;;;5092540;28;20441;-69
2022/06/25 05:15:33;;;;;;;1999.90;999.90;;;20.70;99.90;;;;;;5092355;28;20423;-70
2022/06/25 05:18:00;;;;;;;1999.90;999.90;;;20.50;99.90;;;;;;5091009;28;20534;-69
2022/06/25 05:20:28;;;;;;;1999.90;999.90;;;20.70;99.90;;;;;;5092152;28;20885;-69
2022/06/25 05:22:54;;;;;;;1999.90;999.90;;;20.60;99.90;;;;;;5091863;28;20845;-69
2022/06/25 05:25:21;;;;;;;1999.90;999.90;;;20.60;99.90;;;;;;5092238;28;20444;-70
2022/06/25 05:27:47;;;;;;;1999.90;999.90;;;20.40;99.90;;;;;;5091989;28;20526;-70
2022/06/25 05:30:14;;;;;;;1999.90;999.90;;;20.50;99.90;;;;;;5091996;28;20525;-70
2022/06/25 05:32:41;;;;;;;1999.90;999.90;;;20.40;99.90;;;;;;5091577;28;20494;-70
2022/06/25 05:35:08;;;;;;;1999.90;999.90;;;20.60;99.90;;;;;;5092212;28;20440;-70
2022/06/25 05:37:36;;;;;;;1999.90;999.90;;;20.40;99.90;;;;;;5092139;28;20448;-70
2022/06/25 05:40:03;;;;;;;1999.90;999.90;;;20.50;99.90;;;;;;5091969;28;20527;-70
2022/06/25 05:42:30;;;;;;;1999.90;999.90;;;20.80;99.90;;;;;;5091885;28;20444;-70
2022/06/25 05:44:57;;;;;;;1999.90;999.90;;;20.90;99.90;;;;;;5091860;28;20928;-70
2022/06/25 05:47:23;;;;;;;1999.90;999.90;;;20.90;99.90;;;;;;5091566;28;20947;-70
2022/06/25 05:49:50;;;;;;;1999.90;999.90;;;21.10;99.90;;;;;;5091919;28;20541;-69
2022/06/25 05:52:17;;;;;;;1999.90;999.90;;;21.10;99.90;;;;;;5091443;28;20440;-69
2022/06/25 05:54:45;;;;;;;1999.90;999.90;;;21.40;99.90;;;;;;5091997;28;20483;-69
2022/06/25 05:57:11;;;;;;;1999.90;999.90;;;21.70;99.90;;;;;;5091715;28;20928;-70
2022/06/25 05:59:38;;;;;;;1999.90;999.90;;;22.10;99.90;;;;;;5091847;28;20518;-70
2022/06/25 06:02:05;;;;;;;1999.90;999.90;;;22.40;99.90;;;;;;5091647;28;20452;-69
2022/06/25 06:04:32;;;;;;;1999.90;999.90;;;22.40;99.90;;;;;;5091965;28;20444;-70
2022/06/25 06:06:59;;;;;;;1999.90;999.90;;;22.60;99.90;;;;;;5091822;28;20440;-70
2022/06/25 06:09:27;;;;;;;1999.90;999.90;;;22.80;99.90;;;;;;5091905;28;20571;-70
2022/06/25 06:11:55;;;;;;;1999.90;999.90;;;23.20;99.90;;;;;;5092172;28;20451;-70
2022/06/25 06:14:22;;;;;;;1999.90;999.90;;;23.50;99.90;;;;;;5091634;28;20440;-70
2022/06/25 06:16:49;;;;;;;1999.90;999.90;;;23.60;99.90;;;;;;5091363;28;20448;-69
2022/06/25 06:19:16;;;;;;;1999.90;999.90;;;23.50;99.90;;;;;;5091249;28;20829;-69
2022/06/25 06:21:42;;;;;;;1999.90;999.90;;;23.60;99.90;;;;;;5091817;28;20448;-70
2022/06/25 06:24:09;;;;;;;1999.90;999.90;;;23.60;99.90;;;;;;5091993;28;20444;-70
2022/06/25 06:26:36;;;;;;;1999.90;999.90;;;23.60;99.90;;;;;;5092185;28;20451;-69
2022/06/25 06:29:04;;;;;;;1999.90;999.90;;;23.30;99.90;;;;;;5092573;28;20476;-70
2022/06/25 06:31:31;;;;;;;1999.90;999.90;;;23.60;99.90;;;;;;5095701;28;20444;-69
2022/06/25 06:33:58;;;;;;;1999.90;999.90;;;23.80;99.90;;;;;;5095167;28;20444;-69
2022/06/25 06:36:24;;;;;;;1999.90;999.90;;;23.80;99.90;;;;;;5095719;28;20452;-70
2022/06/25 06:38:51;;;;;;;1999.90;999.90;;;24.10;99.90;;;;;;5095840;28;20513;-70
2022/06/25 06:41:17;;;;;;;1999.90;999.90;;;24.00;99.90;;;;;;5095636;28;20927;-70
2022/06/25 06:43:44;;;;;;;1999.90;999.90;;;24.10;99.90;;;;;;5094953;28;20824;-70
2022/06/25 06:46:13;;;;;;;1999.90;999.90;;;24.30;99.90;;;;;;5095493;28;20475;-70
2022/06/25 06:48:39;;;;;;;1999.90;999.90;;;24.30;99.90;;;;;;5094897;28;20854;-69
2022/06/25 06:51:06;;;;;;;1999.90;999.90;;;24.50;99.90;;;;;;5095620;28;20444;-70
2022/06/25 06:53:33;;;;;;;1999.90;999.90;;;24.50;99.90;;;;;;5095734;28;20547;-70
2022/06/25 06:56:00;;;;;;;1999.90;999.90;;;24.60;99.90;;;;;;5095422;28;20440;-69
2022/06/25 06:58:27;;;;;;;1999.90;999.90;;;24.60;99.90;;;;;;5095432;28;20464;-70
2022/06/25 07:00:54;;;;;;;1999.90;999.90;;;24.30;99.90;;;;;;5095687;28;20513;-70
2022/06/25 07:03:22;;;;;;;1999.90;999.90;;;24.40;99.90;;;;;;5095001;28;20452;-70
2022/06/25 07:05:48;;;;;;;1999.90;999.90;;;24.50;99.90;;;;;;5095029;28;20446;-70
2022/06/25 07:08:16;;;;;;;1999.90;999.90;;;24.50;99.90;;;;;;5095310;28;20520;-70
2022/06/25 07:10:42;;;;;;;1999.90;999.90;;;24.60;99.90;;;;;;5094888;28;20483;-69
2022/06/25 07:13:09;;;;;;;1999.90;999.90;;;24.70;99.90;;;;;;5094700;28;20448;-70
2022/06/25 07:15:36;;;;;;;1999.90;999.90;;;24.80;99.90;;;;;;5094937;28;20497;-70
2022/06/25 07:18:02;;;;;;;1999.90;999.90;;;24.80;99.90;;;;;;5114117;22;20574;-69
2022/06/25 07:20:30;;;;;;;1999.90;999.90;;;24.70;99.90;;;;;;5073428;28;20875;-70
2022/06/25 07:22:57;;;;;;;1999.90;999.90;;;24.70;99.90;;;;;;5073200;28;20865;-72
2022/06/25 07:25:24;;;;;;;1999.90;999.90;;;24.70;99.90;;;;;;5074470;28;20495;-69
2022/06/25 07:27:50;;;;;;;1999.90;999.90;;;24.60;99.90;;;;;;5073982;28;20466;-68
2022/06/25 07:30:17;;;;;;;1999.90;999.90;;;24.80;99.90;;;;;;5073828;28;20485;-68
2022/06/25 07:32:44;;;;;;;1999.90;999.90;;;25.00;99.90;;;;;;5073725;28;20445;-68
2022/06/25 07:35:11;;;;;;;1999.90;999.90;;;24.90;99.90;;;;;;5074267;28;20511;-69
2022/06/25 07:37:41;;;;;;;1999.90;999.90;;;25.00;99.90;;;;;;5074262;28;20485;-69
2022/06/25 07:40:09;;;;;;;1999.90;999.90;;;25.20;99.90;;;;;;5073354;28;20514;-69
2022/06/25 07:42:35;;;;;;;1999.90;999.90;;;25.20;99.90;;;;;;5065762;28;20443;-71
2022/06/25 07:45:03;;;;;;;1999.90;999.90;;;25.10;99.90;;;;;;5053196;28;20852;-68
2022/06/25 07:47:37;;;;;;;1999.90;999.90;;;24.90;99.90;;;;;;5053652;28;20482;-68
2022/06/25 07:52:50;;;;;;;1999.90;999.90;;;25.10;99.90;;;;;;5054463;28;20520;-69
2022/06/25 07:55:17;;;;;;;1999.90;999.90;;;25.00;99.90;;;;;;5053444;28;20488;-69
2022/06/25 07:57:43;;;;;;;1999.90;999.90;;;25.30;99.90;;;;;;5053153;28;20451;-69
2022/06/25 08:00:11;;;;;;;1999.90;999.90;;;25.80;99.90;;;;;;5053540;28;20455;-69
2022/06/25 08:02:38;;;;;;;1999.90;999.90;;;25.70;99.90;;;;;;5053076;28;20829;-69
2022/06/25 08:05:05;;;;;;;1999.90;999.90;;;25.60;99.90;;;;;;5053852;28;20450;-69
2022/06/25 08:07:32;;;;;;;1999.90;999.90;;;25.70;99.90;;;;;;5053023;28;20515;-69
2022/06/25 08:10:00;;;;;;;1999.90;999.90;;;25.70;99.90;;;;;;5052907;28;21051;-69
2022/06/25 08:12:26;;;;;;;1999.90;999.90;;;25.50;99.90;;;;;;5052988;28;20450;-69
2022/06/25 08:14:53;;;;;;;1999.90;999.90;;;25.50;99.90;;;;;;5053085;28;20950;-69
2022/06/25 08:17:20;;;;;;;1999.90;999.90;;;25.50;99.90;;;;;;5052801;28;20512;-69
2022/06/25 08:19:47;;;;;;;1999.90;999.90;;;25.70;99.90;;;;;;5052614;28;20920;-69
2022/06/25 08:22:13;;;;;;;1999.90;999.90;;;25.70;99.90;;;;;;5052841;28;20497;-69
2022/06/25 08:24:40;;;;;;;1999.90;999.90;;;25.80;99.90;;;;;;5053139;28;20515;-69
2022/06/25 08:27:10;;;;;;;1999.90;999.90;;;26.10;99.90;;;;;;5053070;28;20496;-69
2022/06/25 08:29:36;;;;;;;1999.90;999.90;;;25.80;99.90;;;;;;5052427;28;21085;-68
2022/06/25 08:32:03;;;;;;;1999.90;999.90;;;26.00;99.90;;;;;;5052832;28;20458;-68
2022/06/25 08:34:30;;;;;;;1999.90;999.90;;;26.10;99.90;;;;;;5052825;28;20511;-68
2022/06/25 08:36:56;;;;;;;1999.90;999.90;;;26.50;99.90;;;;;;5052571;28;20478;-68
2022/06/25 08:39:23;;;;;;;1999.90;999.90;;;26.50;99.90;;;;;;5052827;28;20846;-68
2022/06/25 08:41:50;;;;;;;1999.90;999.90;;;26.60;99.90;;;;;;5052384;28;20450;-68
2022/06/25 08:44:18;;;;;;;1999.90;999.90;;;26.90;99.40;;;;;;5052870;28;20501;-68
2022/06/25 08:46:44;;;;;;;1999.90;999.90;;;26.40;99.80;;;;;;5052769;28;20500;-68
2022/06/25 08:49:13;;;;;;;1999.90;999.90;;;26.20;99.90;;;;;;5052583;28;20520;-67
2022/06/25 08:51:39;;;;;;;1999.90;999.90;;;26.20;99.90;;;;;;5051654;28;21008;-67
2022/06/25 08:54:08;;;;;;;1999.90;999.90;;;26.40;99.10;;;;;;5052102;28;21007;-69
2022/06/25 08:56:35;;;;;;;1999.90;999.90;;;26.30;99.30;;;;;;5052037;28;20829;-70
2022/06/25 08:59:02;;;;;;;1999.90;999.90;;;26.30;99.20;;;;;;5052292;28;20462;-69
2022/06/25 09:01:30;;;;;;;1999.90;999.90;;;26.30;99.70;;;;;;5052490;28;20442;-69
2022/06/25 09:03:58;;;;;;;1999.90;999.90;;;26.30;99.90;;;;;;5051765;28;20518;-68
2022/06/25 09:06:24;;;;;;;1999.90;999.90;;;26.30;99.90;;;;;;5052193;28;20446;-69
2022/06/25 09:09:06;;;;;;;1999.90;999.90;;;26.30;99.60;;;;;;5052149;28;20462;-67
2022/06/25 09:11:47;;;;;;;1999.90;999.90;;;26.50;99.30;;;;;;5051976;28;20486;-69
2022/06/25 09:14:20;;;;;;;1999.90;999.90;;;26.40;99.00;;;;;;5051730;28;20939;-68
2022/06/25 09:16:54;;;;;;;1999.90;999.90;;;26.30;99.20;;;;;;5051802;28;20427;-68
2022/06/25 09:19:29;;;;;;;1999.90;999.90;;;26.10;99.40;;;;;;5052173;28;20478;-68
2022/06/25 09:21:57;;;;;;;1999.90;999.90;;;25.90;99.20;;;;;;5051642;28;20949;-68
2022/06/25 09:24:24;;;;;;;1999.90;999.90;;;26.20;99.70;;;;;;5051499;28;20500;-68
2022/06/25 09:26:52;;;;;;;1999.90;999.90;;;26.30;99.70;;;;;;5051997;28;20457;-68
2022/06/25 09:29:19;;;;;;;1999.90;999.90;;;26.30;99.90;;;;;;5052917;28;20462;-68
2022/06/25 09:31:45;;;;;;;1999.90;999.90;;;26.30;99.90;;;;;;5052246;28;20877;-68
2022/06/25 09:34:13;;;;;;;1999.90;999.90;;;26.20;99.90;;;;;;5052345;28;20504;-68
2022/06/25 09:36:40;;;;;;;1999.90;999.90;;;26.20;99.90;;;;;;5051669;28;20523;-68
2022/06/25 09:39:07;;;;;;;1999.90;999.90;;;26.40;99.80;;;;;;5051662;28;20524;-68
2022/06/25 09:41:49;;;;;;;1999.90;999.90;;;26.70;98.90;;;;;;5051938;28;20443;-68
2022/06/25 09:44:17;;;;;;;1999.90;999.90;;;26.70;99.90;;;;;;5051558;28;20430;-68
2022/06/25 09:46:54;;;;;;;1999.90;999.90;;;26.80;99.90;;;;;;5051774;28;20450;-68
2022/06/25 09:49:26;;;;;;;1999.90;999.90;;;26.90;99.30;;;;;;5051324;28;20985;-68
2022/06/25 09:52:00;;;;;;;1999.90;999.90;;;26.90;98.90;;;;;;5051202;28;20959;-68
2022/06/25 09:54:27;;;;;;;1999.90;999.90;;;26.70;99.40;;;;;;5051479;28;20446;-68
2022/06/25 09:56:54;;;;;;;1999.90;999.90;;;26.60;99.40;;;;;;5051744;28;20447;-68
2022/06/25 09:59:24;;;;;;;1999.90;999.90;;;26.60;99.90;;;;;;5051497;28;21041;-68
2022/06/25 10:01:50;;;;;;;1999.90;999.90;;;26.90;99.80;;;;;;5051322;28;20442;-68
2022/06/25 10:04:20;;;;;;;1999.90;999.90;;;27.10;98.80;;;;;;5054306;28;20446;-68
2022/06/25 10:06:52;;;;;;;1999.90;999.90;;;27.40;97.90;;;;;;5055656;28;20445;-68
2022/06/25 10:09:21;;;;;;;1999.90;999.90;;;27.40;97.40;;;;;;5055527;28;20470;-68
2022/06/25 10:11:48;;;;;;;1999.90;999.90;;;27.10;97.50;;;;;;5055623;28;20915;-68
2022/06/25 10:14:14;;;;;;;1999.90;999.90;;;26.80;98.40;;;;;;5054860;28;20934;-68
2022/06/25 10:16:43;;;;;;;1999.90;999.90;;;26.70;98.60;;;;;;5055603;28;20454;-68
2022/06/25 10:19:11;;;;;;;1999.90;999.90;;;26.80;98.30;;;;;;5055393;28;20572;-67
2022/06/25 10:21:38;;;;;;;1999.90;999.90;;;26.80;98.50;;;;;;5055234;28;20793;-68
2022/06/25 10:24:07;;;;;;;1999.90;999.90;;;26.70;99.50;;;;;;5055226;28;20496;-68
2022/06/25 10:26:35;;;;;;;1999.90;999.90;;;26.70;99.00;;;;;;5055072;28;20500;-68
2022/06/25 10:29:03;;;;;;;1999.90;999.90;;;26.50;99.30;;;;;;5055436;28;20516;-68
2022/06/25 10:31:30;;;;;;;1999.90;999.90;;;26.40;99.40;;;;;;5055106;28;20560;-68
2022/06/25 10:33:59;;;;;;;1999.90;999.90;;;26.60;99.50;;;;;;5054810;28;20871;-68
2022/06/25 10:36:41;;;;;;;1999.90;999.90;;;26.60;99.30;;;;;;5055174;28;20438;-68
2022/06/25 10:39:37;;;;;;;1999.90;999.90;;;26.70;99.90;;;;;;5055084;28;20474;-68
2022/06/25 10:45:50;;;;;;;1999.90;999.90;;;27.10;98.50;;;;;;5054826;28;20479;-68
2022/06/25 10:48:18;;;;;;;1999.90;999.90;;;27.20;98.10;;;;;;5054676;28;20974;-68
2022/06/25 10:50:48;;;;;;;1999.90;999.90;;;27.60;99.20;;;;;;5054932;28;20691;-68
2022/06/25 10:53:26;;;;;;;1999.90;999.90;;;27.80;98.20;;;;;;5054651;28;20454;-68
2022/06/25 10:56:12;;;;;;;1999.90;999.90;;;28.40;96.70;;;;;;5054618;28;20504;-68
2022/06/25 10:58:46;;;;;;;1999.90;999.90;;;28.20;96.80;;;;;;5054923;28;20580;-68
2022/06/25 11:01:40;;;;;;;1999.90;999.90;;;28.30;97.80;;;;;;5054622;28;20458;-68
2022/06/25 11:04:12;;;;;;;1999.90;999.90;;;28.70;96.00;;;;;;5029647;28;20459;-68
2022/06/25 11:06:40;;;;;;;1999.90;999.90;;;28.50;95.80;;;;;;5054790;28;20473;-68
2022/06/25 11:09:12;;;;;;;1999.90;999.90;;;28.30;97.10;;;;;;5054025;28;21064;-68
2022/06/25 11:11:42;;;;;;;1999.90;999.90;;;28.20;95.50;;;;;;5054464;28;20528;-68
2022/06/25 11:14:19;;;;;;;1999.90;999.90;;;28.10;96.50;;;;;;5053827;28;20804;-68
2022/06/25 11:16:47;;;;;;;1999.90;999.90;;;27.90;96.20;;;;;;5053913;28;20450;-68
2022/06/25 11:19:13;;;;;;;1999.90;999.90;;;27.70;96.20;;;;;;5054128;28;20477;-68
2022/06/25 11:21:42;;;;;;;1999.90;999.90;;;27.60;96.30;;;;;;5054189;28;20446;-68
2022/06/25 11:24:11;;;;;;;1999.90;999.90;;;27.90;95.70;;;;;;5053622;28;20461;-68
2022/06/25 11:29:28;;;;;;;1999.90;999.90;;;27.70;96.80;;;;;;5054260;28;20450;-68
2022/06/25 11:31:55;;;;;;;1999.90;999.90;;;27.90;96.00;;;;;;5054174;28;20556;-68
2022/06/25 11:34:24;;;;;;;1999.90;999.90;;;28.00;95.50;;;;;;5053836;28;20450;-68
2022/06/25 11:37:06;;;;;;;1999.90;999.90;;;28.00;95.50;;;;;;5053668;28;20949;-68
2022/06/25 11:39:34;;;;;;;1999.90;999.90;;;27.80;95.90;;;;;;5053876;28;20474;-68
2022/06/25 11:42:08;;;;;;;1999.90;999.90;;;27.90;96.70;;;;;;5053886;28;20748;-68
2022/06/25 11:44:40;;;;;;;1999.90;999.90;;;27.90;95.70;;;;;;5053607;28;20453;-68
2022/06/25 11:47:06;;;;;;;1999.90;999.90;;;28.00;96.40;;;;;;5053830;28;20477;-68
2022/06/25 11:49:36;;;;;;;1999.90;999.90;;;28.10;96.40;;;;;;5053735;28;20475;-68
2022/06/25 11:52:05;;;;;;;1999.90;999.90;;;28.20;95.30;;;;;;5053617;28;20536;-69
2022/06/25 11:54:36;;;;;;;1999.90;999.90;;;27.90;96.00;;;;;;5053443;28;20496;-68
2022/06/25 11:57:05;;;;;;;1999.90;999.90;;;27.60;96.30;;;;;;5053567;28;20462;-68
2022/06/25 11:59:33;;;;;;;1999.90;999.90;;;27.50;96.90;;;;;;5053349;28;20462;-68
2022/06/25 12:02:03;;;;;;;1999.90;999.90;;;27.50;96.40;;;;;;5053200;28;20966;-70
2022/06/25 12:04:30;;;;;;;1999.90;999.90;;;27.50;97.00;;;;;;5053504;28;20446;-68
2022/06/25 12:06:57;;;;;;;1999.90;999.90;;;27.40;96.60;;;;;;5053039;28;20861;-68
2022/06/25 12:09:24;;;;;;;1999.90;999.90;;;27.60;96.40;;;;;;5053307;28;20466;-68
2022/06/25 12:11:55;;;;;;;1999.90;999.90;;;27.70;96.10;;;;;;5053246;28;20481;-68
2022/06/25 12:14:29;;;;;;;1999.90;999.90;;;27.70;95.30;;;;;;5052560;28;20449;-68
2022/06/25 12:16:56;;;;;;;1999.90;999.90;;;28.00;95.90;;;;;;5052619;28;20929;-68
2022/06/25 12:19:23;;;;;;;1999.90;999.90;;;27.90;96.10;;;;;;5053097;28;20485;-68